sensor_id;sensor_type;location;lat;lon;timestamp;pressure;altitude;pressure_sealevel;temperature;humidity
63582;BME280;49727;51.078;17.066;2023-11-19T00:09:03;100639.94;;;1.78;77.91
63582;BME280;49727;51.078;17.066;2023-11-19T00:24:04;100587.47;;;1.76;77.70
63582;BME280;49727;51.078;17.066;2023-11-19T00:39:04;100558.16;;;1.57;77.56
63582;BME280;49727;51.078;17.066;2023-11-19T00:54:06;100518.63;;;1.32;78.28
63582;BME280;49727;51.078;17.066;2023-11-19T01:09:06;100494.16;;;1.19;78.37
63582;BME280;49727;51.078;17.066;2023-11-19T01:24:08;100441.09;;;1.01;78.40
63582;BME280;49727;51.078;17.066;2023-11-19T01:39:09;100415.91;;;0.86;78.92
63582;BME280;49727;51.078;17.066;2023-11-19T01:54:10;100404.69;;;0.83;78.92
63582;BME280;49727;51.078;17.066;2023-11-19T02:09:11;100373.19;;;0.83;79.07
63582;BME280;49727;51.078;17.066;2023-11-19T02:24:14;100349.16;;;0.90;78.94
63582;BME280;49727;51.078;17.066;2023-11-19T02:39:15;100333.66;;;0.87;78.89
63582;BME280;49727;51.078;17.066;2023-11-19T02:54:20;100325.88;;;0.85;78.85
63582;BME280;49727;51.078;17.066;2023-11-19T03:09:27;100280.78;;;0.80;78.69
63582;BME280;49727;51.078;17.066;2023-11-19T03:24:28;100240.91;;;0.75;78.62
63582;BME280;49727;51.078;17.066;2023-11-19T03:39:28;100253.91;;;0.76;79.16
63582;BME280;49727;51.078;17.066;2023-11-19T03:54:29;100205.34;;;0.71;79.19
63582;BME280;49727;51.078;17.066;2023-11-19T04:09:30;100180.06;;;0.70;79.09
63582;BME280;49727;51.078;17.066;2023-11-19T04:24:30;100115.25;;;0.72;79.03
63582;BME280;49727;51.078;17.066;2023-11-19T04:39:30;100059.69;;;0.66;79.33
63582;BME280;49727;51.078;17.066;2023-11-19T04:54:31;100045.09;;;0.75;79.27
63582;BME280;49727;51.078;17.066;2023-11-19T05:09:31;100042.41;;;0.88;79.33
63582;BME280;49727;51.078;17.066;2023-11-19T05:24:31;100007.25;;;0.91;79.36
63582;BME280;49727;51.078;17.066;2023-11-19T05:39:32;99982.63;;;1.05;79.34
63582;BME280;49727;51.078;17.066;2023-11-19T05:54:33;99963.31;;;1.17;79.32
63582;BME280;49727;51.078;17.066;2023-11-19T06:09:38;99953.34;;;1.33;79.63
63582;BME280;49727;51.078;17.066;2023-11-19T06:24:40;99939.78;;;1.40;79.15
63582;BME280;49727;51.078;17.066;2023-11-19T06:39:40;99899.31;;;1.54;79.46
63582;BME280;49727;51.078;17.066;2023-11-19T06:54:40;99866.84;;;1.77;79.22
63582;BME280;49727;51.078;17.066;2023-11-19T07:09:41;99838.97;;;1.97;78.76
63582;BME280;49727;51.078;17.066;2023-11-19T07:24:41;99821.84;;;2.14;78.66
63582;BME280;49727;51.078;17.066;2023-11-19T07:39:43;99817.97;;;2.30;78.24
63582;BME280;49727;51.078;17.066;2023-11-19T07:54:44;99789.50;;;2.35;77.92
63582;BME280;49727;51.078;17.066;2023-11-19T08:09:45;99783.88;;;2.40;77.96
63582;BME280;49727;51.078;17.066;2023-11-19T08:24:45;99741.94;;;2.38;77.64
63582;BME280;49727;51.078;17.066;2023-11-19T08:39:46;99717.38;;;2.28;77.93
63582;BME280;49727;51.078;17.066;2023-11-19T08:54:46;99670.31;;;2.03;78.07
63582;BME280;49727;51.078;17.066;2023-11-19T09:09:47;99644.63;;;2.07;78.46
63582;BME280;49727;51.078;17.066;2023-11-19T09:24:47;99652.25;;;2.31;78.70
63582;BME280;49727;51.078;17.066;2023-11-19T09:39:48;99622.34;;;2.63;78.72
63582;BME280;49727;51.078;17.066;2023-11-19T09:54:48;99603.88;;;2.84;78.42
63582;BME280;49727;51.078;17.066;2023-11-19T10:09:49;99550.97;;;2.97;78.82
63582;BME280;49727;51.078;17.066;2023-11-19T10:24:49;99516.53;;;3.20;78.78
63582;BME280;49727;51.078;17.066;2023-11-19T10:39:53;99477.69;;;3.51;78.78
63582;BME280;49727;51.078;17.066;2023-11-19T10:54:59;99472.19;;;3.72;78.99
63582;BME280;49727;51.078;17.066;2023-11-19T11:10:01;99450.31;;;3.72;79.18
63582;BME280;49727;51.078;17.066;2023-11-19T11:25:16;99431.00;;;3.71;79.54
63582;BME280;49727;51.078;17.066;2023-11-19T11:40:19;99420.78;;;3.96;79.91
63582;BME280;49727;51.078;17.066;2023-11-19T11:55:24;99402.84;;;4.28;79.72
63582;BME280;49727;51.078;17.066;2023-11-19T12:10:24;99378.84;;;4.49;79.70
63582;BME280;49727;51.078;17.066;2023-11-19T12:25:25;99367.78;;;4.89;79.61
63582;BME280;49727;51.078;17.066;2023-11-19T12:40:25;99354.38;;;5.35;79.46
63582;BME280;49727;51.078;17.066;2023-11-19T12:55:29;99342.59;;;5.56;79.26
63582;BME280;49727;51.078;17.066;2023-11-19T13:10:49;99316.19;;;6.07;79.22
63582;BME280;49727;51.078;17.066;2023-11-19T13:25:50;99299.69;;;6.38;78.94
63582;BME280;49727;51.078;17.066;2023-11-19T13:40:51;99283.59;;;8.31;78.63
63582;BME280;49727;51.078;17.066;2023-11-19T13:55:51;99295.03;;;10.47;74.78
63582;BME280;49727;51.078;17.066;2023-11-19T14:10:52;99296.38;;;8.89;75.24
63582;BME280;49727;51.078;17.066;2023-11-19T14:25:55;99295.69;;;8.02;76.34
63582;BME280;49727;51.078;17.066;2023-11-19T14:40:55;99286.25;;;7.76;76.87
63582;BME280;49727;51.078;17.066;2023-11-19T14:55:56;99274.50;;;7.39;76.93
63582;BME280;49727;51.078;17.066;2023-11-19T15:10:56;99285.84;;;7.17;77.28
63582;BME280;49727;51.078;17.066;2023-11-19T15:25:58;99306.03;;;7.26;77.00
63582;BME280;49727;51.078;17.066;2023-11-19T15:40:58;99305.19;;;7.17;77.19
63582;BME280;49727;51.078;17.066;2023-11-19T15:55:59;99323.75;;;7.17;76.54
63582;BME280;49727;51.078;17.066;2023-11-19T16:10:59;99339.19;;;6.97;76.31
63582;BME280;49727;51.078;17.066;2023-11-19T16:26:00;99329.06;;;7.01;77.01
63582;BME280;49727;51.078;17.066;2023-11-19T16:41:00;99332.88;;;7.06;76.82
63582;BME280;49727;51.078;17.066;2023-11-19T16:56:00;99314.50;;;7.13;76.95
63582;BME280;49727;51.078;17.066;2023-11-19T17:11:02;99333.53;;;7.17;76.87
63582;BME280;49727;51.078;17.066;2023-11-19T17:26:03;99326.38;;;7.25;76.85
63582;BME280;49727;51.078;17.066;2023-11-19T17:41:05;99336.09;;;7.41;76.51
63582;BME280;49727;51.078;17.066;2023-11-19T17:56:06;99333.06;;;7.53;76.57
63582;BME280;49727;51.078;17.066;2023-11-19T18:11:06;99320.13;;;7.58;76.03
63582;BME280;49727;51.078;17.066;2023-11-19T18:26:10;99318.03;;;7.53;75.46
63582;BME280;49727;51.078;17.066;2023-11-19T18:41:11;99330.34;;;7.69;75.30
63582;BME280;49727;51.078;17.066;2023-11-19T18:56:13;99333.25;;;7.91;75.07
63582;BME280;49727;51.078;17.066;2023-11-19T19:11:14;99333.16;;;8.07;74.85
63582;BME280;49727;51.078;17.066;2023-11-19T19:26:14;99333.28;;;8.14;74.51
63582;BME280;49727;51.078;17.066;2023-11-19T19:41:15;99341.72;;;8.18;74.52
63582;BME280;49727;51.078;17.066;2023-11-19T19:56:15;99338.41;;;8.16;73.74
63582;BME280;49727;51.078;17.066;2023-11-19T20:11:16;99350.31;;;8.20;74.00
63582;BME280;49727;51.078;17.066;2023-11-19T20:26:17;99347.59;;;8.28;73.50
63582;BME280;49727;51.078;17.066;2023-11-19T20:41:21;99355.50;;;8.36;73.55
63582;BME280;49727;51.078;17.066;2023-11-19T20:56:22;99358.84;;;8.38;73.76
63582;BME280;49727;51.078;17.066;2023-11-19T21:11:23;99363.75;;;8.73;73.48
63582;BME280;49727;51.078;17.066;2023-11-19T21:26:23;99375.03;;;8.90;73.04
63582;BME280;49727;51.078;17.066;2023-11-19T21:41:24;99375.91;;;9.05;72.63
63582;BME280;49727;51.078;17.066;2023-11-19T21:56:24;99355.88;;;8.79;73.22
63582;BME280;49727;51.078;17.066;2023-11-19T22:11:25;99348.13;;;8.55;73.75
63582;BME280;49727;51.078;17.066;2023-11-19T22:26:27;99350.44;;;8.26;74.78
63582;BME280;49727;51.078;17.066;2023-11-19T22:41:27;99344.66;;;8.23;74.82
63582;BME280;49727;51.078;17.066;2023-11-19T22:56:28;99360.44;;;7.93;74.87
63582;BME280;49727;51.078;17.066;2023-11-19T23:11:28;99362.34;;;7.68;74.79
63582;BME280;49727;51.078;17.066;2023-11-19T23:26:29;99368.03;;;7.56;75.95
63582;BME280;49727;51.078;17.066;2023-11-19T23:41:29;99371.84;;;7.54;75.85
63582;BME280;49727;51.078;17.066;2023-11-19T23:56:29;99376.78;;;7.57;75.77
